createdAt,value
2022-11-25T00:01:31.244Z,6.90
2022-11-25T00:04:00.563Z,8.13
2022-11-25T00:06:30.655Z,7.80
2022-11-25T00:09:00.032Z,8.13
2022-11-25T00:11:29.443Z,7.50
2022-11-25T00:13:58.584Z,7.03
2022-11-25T00:16:27.741Z,7.47
2022-11-25T00:18:57.890Z,6.80
2022-11-25T00:21:27.618Z,7.67
2022-11-25T00:23:57.325Z,6.80
2022-11-25T00:26:26.450Z,7.17
2022-11-25T00:28:57.687Z,7.17
2022-11-25T00:31:27.350Z,6.80
2022-11-25T00:33:55.632Z,6.67
2022-11-25T00:36:25.293Z,6.73
2022-11-25T00:38:55.542Z,6.60
2022-11-25T00:41:45.240Z,7.33
2022-11-25T00:44:35.762Z,7.40
2022-11-25T00:47:04.907Z,6.50
2022-11-25T00:49:33.068Z,6.60
2022-11-25T00:52:14.149Z,6.53
2022-11-25T00:54:42.104Z,6.00
2022-11-25T00:57:10.038Z,6.20
2022-11-25T00:59:39.356Z,6.37
2022-11-25T01:02:07.986Z,6.00
2022-11-25T01:04:36.384Z,6.33
2022-11-25T01:07:15.626Z,5.97
2022-11-25T01:09:43.607Z,5.93
2022-11-25T01:12:13.002Z,6.57
2022-11-25T01:14:42.453Z,5.50
2022-11-25T01:17:10.482Z,5.90
2022-11-25T01:19:40.354Z,6.00
2022-11-25T01:22:16.920Z,5.50
2022-11-25T01:24:44.792Z,6.37
2022-11-25T01:27:12.646Z,6.40
2022-11-25T01:29:43.067Z,5.97
2022-11-25T01:32:11.061Z,5.73
2022-11-25T01:34:39.050Z,5.20
2022-11-25T01:37:09.546Z,5.50
2022-11-25T01:39:38.824Z,5.37
2022-11-25T01:42:06.728Z,5.77
2022-11-25T01:44:38.403Z,4.93
2022-11-25T01:47:16.212Z,5.37
2022-11-25T01:49:51.059Z,5.57
2022-11-25T01:52:25.887Z,5.60
2022-11-25T01:55:00.015Z,5.03
2022-11-25T01:57:33.093Z,5.87
2022-11-25T02:00:05.062Z,5.53
2022-11-25T02:02:35.841Z,4.90
2022-11-25T02:05:08.683Z,5.17
2022-11-25T02:07:39.616Z,5.77
2022-11-25T02:10:11.089Z,5.33
2022-11-25T02:12:45.010Z,5.07
2022-11-25T02:15:15.114Z,4.80
2022-11-25T02:17:46.707Z,5.70
2022-11-25T02:20:17.187Z,4.70
2022-11-25T02:22:58.878Z,5.67
2022-11-25T02:25:31.258Z,4.90
2022-11-25T02:28:04.285Z,5.10
2022-11-25T02:30:33.310Z,4.87
2022-11-25T02:33:02.411Z,5.30
2022-11-25T02:35:34.942Z,5.20
2022-11-25T02:38:08.190Z,4.87
2022-11-25T02:40:43.071Z,5.07
2022-11-25T02:43:11.084Z,5.30
2022-11-25T02:45:52.887Z,4.67
2022-11-25T02:48:30.195Z,5.37
2022-11-25T02:51:11.406Z,5.10
2022-11-25T02:53:40.066Z,5.07
2022-11-25T02:56:09.958Z,4.80
2022-11-25T02:58:37.842Z,4.90
2022-11-25T03:01:06.322Z,4.63
2022-11-25T03:03:34.855Z,5.00
2022-11-25T03:06:02.731Z,4.70
2022-11-25T03:08:31.266Z,4.90
2022-11-25T03:10:59.089Z,4.63
2022-11-25T03:13:28.589Z,5.10
2022-11-25T03:15:57.989Z,4.70
2022-11-25T03:18:25.868Z,4.90
2022-11-25T03:20:54.985Z,5.53
2022-11-25T03:23:23.413Z,5.03
2022-11-25T03:25:51.393Z,5.07
2022-11-25T03:28:19.277Z,5.57
2022-11-25T03:30:48.587Z,5.50
2022-11-25T03:33:16.761Z,4.93
2022-11-25T03:35:44.811Z,4.73
2022-11-25T03:38:12.733Z,4.77
2022-11-25T03:40:40.990Z,5.50
2022-11-25T03:43:08.913Z,5.37
2022-11-25T03:45:36.827Z,4.23
2022-11-25T03:48:06.441Z,4.30
2022-11-25T03:50:34.721Z,5.10
2022-11-25T03:53:02.588Z,4.30
2022-11-25T03:55:30.447Z,4.50
2022-11-25T03:58:00.266Z,4.37
2022-11-25T04:00:28.252Z,4.83
2022-11-25T04:02:56.609Z,4.60
2022-11-25T04:05:26.300Z,4.30
2022-11-25T04:07:57.870Z,5.17
2022-11-25T04:10:26.272Z,6.00
2022-11-25T04:12:54.105Z,4.70
2022-11-25T04:15:22.948Z,5.20
2022-11-25T04:17:51.831Z,5.13
2022-11-25T04:20:20.066Z,5.40
2022-11-25T04:22:49.375Z,4.93
2022-11-25T04:25:17.376Z,4.93
2022-11-25T04:27:45.886Z,5.17
2022-11-25T04:30:17.264Z,5.47
2022-11-25T04:32:45.153Z,4.90
2022-11-25T04:35:13.082Z,4.43
2022-11-25T04:37:41.306Z,5.27
2022-11-25T04:40:11.965Z,5.13
2022-11-25T04:42:40.779Z,4.73
2022-11-25T04:45:26.464Z,4.83
2022-11-25T04:47:54.445Z,5.20
2022-11-25T04:50:24.094Z,5.07
2022-11-25T04:52:51.942Z,4.83
2022-11-25T04:55:21.225Z,5.00
2022-11-25T04:57:49.150Z,5.37
2022-11-25T05:00:16.866Z,4.93
2022-11-25T05:02:44.838Z,4.40
2022-11-25T05:05:12.834Z,3.83
2022-11-25T05:07:40.800Z,4.17
2022-11-25T05:10:09.882Z,4.40
2022-11-25T05:12:40.372Z,4.60
2022-11-25T05:15:10.882Z,4.27
2022-11-25T05:17:50.939Z,4.67
2022-11-25T05:20:19.093Z,4.00
2022-11-25T05:22:47.051Z,4.90
2022-11-25T05:25:16.624Z,5.27
2022-11-25T05:27:46.136Z,4.30
2022-11-25T05:30:14.526Z,4.57
2022-11-25T05:32:42.428Z,3.87
2022-11-25T05:35:10.481Z,4.60
2022-11-25T05:37:38.341Z,4.33
2022-11-25T05:40:07.518Z,4.40
2022-11-25T05:42:35.852Z,4.73
2022-11-25T05:45:05.747Z,4.03
2022-11-25T05:47:33.604Z,3.70
2022-11-25T05:50:01.501Z,4.60
2022-11-25T05:52:29.396Z,4.77
2022-11-25T05:54:57.690Z,3.93
2022-11-25T05:57:25.602Z,4.00
2022-11-25T05:59:55.492Z,5.10
2022-11-25T06:02:24.825Z,4.77
2022-11-25T06:04:52.762Z,5.53
2022-11-25T06:07:20.887Z,4.50
2022-11-25T06:09:48.770Z,5.77
2022-11-25T06:12:16.607Z,4.57
2022-11-25T06:14:44.502Z,4.93
2022-11-25T06:17:12.367Z,4.63
2022-11-25T06:19:41.700Z,4.80
2022-11-25T06:22:09.530Z,5.10
2022-11-25T06:24:37.707Z,4.60
2022-11-25T06:27:05.806Z,4.30
2022-11-25T06:29:35.862Z,5.00
2022-11-25T06:32:03.771Z,4.80
2022-11-25T06:34:31.746Z,4.50
2022-11-25T06:37:01.044Z,4.43
2022-11-25T06:39:28.910Z,4.50
2022-11-25T06:41:56.838Z,4.70
2022-11-25T06:44:24.721Z,4.70
2022-11-25T06:46:52.618Z,4.87
2022-11-25T06:49:20.542Z,4.67
2022-11-25T06:51:51.629Z,5.13
2022-11-25T06:54:20.906Z,5.20
2022-11-25T06:56:53.860Z,5.13
2022-11-25T06:59:22.593Z,4.40
2022-11-25T07:01:50.550Z,4.97
2022-11-25T07:04:18.491Z,5.40
2022-11-25T07:06:46.353Z,5.60
2022-11-25T07:09:14.219Z,4.43
2022-11-25T07:11:44.973Z,6.00
2022-11-25T07:14:15.375Z,5.17
2022-11-25T07:16:45.088Z,5.43
2022-11-25T07:19:14.186Z,5.60
2022-11-25T07:21:43.501Z,6.03
2022-11-25T07:24:12.518Z,6.30
2022-11-25T07:26:42.132Z,6.10
2022-11-25T07:29:44.299Z,5.47
2022-11-25T07:32:10.598Z,6.27
2022-11-25T07:34:39.144Z,5.93
2022-11-25T07:37:07.210Z,6.03
2022-11-25T07:39:56.480Z,5.87
2022-11-25T07:42:25.466Z,6.30
2022-11-25T07:44:54.820Z,6.77
2022-11-25T07:47:22.875Z,5.67
2022-11-25T07:49:50.759Z,6.50
2022-11-25T07:52:20.191Z,5.93
2022-11-25T07:54:50.985Z,6.53
2022-11-25T07:57:18.830Z,6.30
2022-11-25T07:59:46.707Z,6.20
2022-11-25T08:02:16.009Z,6.23
2022-11-25T08:04:44.320Z,6.37
2022-11-25T08:07:12.794Z,6.40
2022-11-25T08:09:51.604Z,6.27
2022-11-25T08:12:19.699Z,5.63
2022-11-25T08:14:48.589Z,7.40
2022-11-25T08:17:17.819Z,6.37
2022-11-25T08:19:45.662Z,6.03
2022-11-25T08:22:13.583Z,6.20
2022-11-25T08:24:41.517Z,6.60
2022-11-25T08:27:09.330Z,7.13
2022-11-25T08:29:37.402Z,6.80
2022-11-25T08:32:11.626Z,7.17
2022-11-25T08:34:41.339Z,7.07
2022-11-25T08:37:09.284Z,6.73
2022-11-25T08:39:52.347Z,7.20
2022-11-25T08:42:21.295Z,6.50
2022-11-25T08:44:53.107Z,7.40
2022-11-25T08:47:21.084Z,7.20
2022-11-25T08:49:53.616Z,7.30
2022-11-25T08:52:22.034Z,7.27
2022-11-25T08:54:50.867Z,6.80
2022-11-25T08:57:18.740Z,6.03
2022-11-25T08:59:47.086Z,7.77
2022-11-25T09:02:18.023Z,6.27
2022-11-25T09:04:46.184Z,6.63
2022-11-25T09:07:15.609Z,6.73
2022-11-25T09:09:44.170Z,6.10
2022-11-25T09:12:15.368Z,6.00
2022-11-25T09:14:43.371Z,5.87
2022-11-25T09:17:11.850Z,5.63
2022-11-25T09:19:40.031Z,6.40
2022-11-25T09:22:08.968Z,5.27
2022-11-25T09:24:38.273Z,5.80
2022-11-25T09:27:06.618Z,5.07
2022-11-25T09:29:35.065Z,5.30
2022-11-25T09:32:03.377Z,5.07
2022-11-25T09:34:36.560Z,5.33
2022-11-25T09:37:04.726Z,4.80
2022-11-25T09:39:35.691Z,5.47
2022-11-25T09:42:38.954Z,4.70
2022-11-25T09:45:33.426Z,4.33
2022-11-25T09:48:11.831Z,4.87
2022-11-25T09:50:52.538Z,5.23
2022-11-25T09:53:35.227Z,5.47
2022-11-25T09:56:05.374Z,4.30
2022-11-25T09:58:38.384Z,4.90
2022-11-25T10:01:08.527Z,4.90
2022-11-25T10:03:42.342Z,5.67
2022-11-25T10:06:16.397Z,4.60
2022-11-25T10:08:45.861Z,5.07
2022-11-25T10:11:26.275Z,4.47
2022-11-25T10:14:02.441Z,4.43
2022-11-25T10:16:37.007Z,5.03
2022-11-25T10:19:16.953Z,5.00
2022-11-25T10:21:46.384Z,5.30
2022-11-25T10:24:16.034Z,5.53
2022-11-25T10:26:46.084Z,4.93
2022-11-25T10:29:39.156Z,4.53
2022-11-25T10:32:20.123Z,5.03
2022-11-25T10:34:51.655Z,4.90
2022-11-25T10:37:28.927Z,5.03
2022-11-25T10:39:56.827Z,5.13
2022-11-25T10:42:27.194Z,5.70
2022-11-25T10:44:56.639Z,4.60
2022-11-25T10:47:36.637Z,4.70
2022-11-25T10:50:26.738Z,5.20
2022-11-25T10:53:00.115Z,4.60
2022-11-25T10:55:31.050Z,5.33
2022-11-25T10:57:59.448Z,5.03
2022-11-25T11:00:32.720Z,4.77
2022-11-25T11:03:13.841Z,4.57
2022-11-25T11:05:47.039Z,5.40
2022-11-25T11:08:21.980Z,5.17
2022-11-25T11:11:14.764Z,5.60
2022-11-25T11:13:44.983Z,5.27
2022-11-25T11:16:27.992Z,5.37
2022-11-25T11:18:57.148Z,4.83
2022-11-25T11:21:31.090Z,5.60
2022-11-25T11:24:00.671Z,5.43
2022-11-25T11:26:31.250Z,5.23
2022-11-25T11:29:02.754Z,5.40
2022-11-25T11:31:36.395Z,4.73
2022-11-25T11:34:22.396Z,5.10
2022-11-25T11:37:02.804Z,5.27
2022-11-25T11:39:51.503Z,5.17
2022-11-25T11:42:30.808Z,5.60
2022-11-25T11:45:11.618Z,5.43
2022-11-25T11:47:54.076Z,5.03
2022-11-25T11:50:28.694Z,4.87
2022-11-25T11:53:03.334Z,5.73
2022-11-25T11:55:43.436Z,5.73
2022-11-25T11:58:26.870Z,5.27
2022-11-25T12:01:05.868Z,6.40
2022-11-25T12:03:42.873Z,5.90
2022-11-25T12:06:13.311Z,5.03
2022-11-25T12:08:49.777Z,5.50
2022-11-25T12:11:22.143Z,5.17
2022-11-25T12:14:01.131Z,5.27
2022-11-25T12:16:35.238Z,5.50
2022-11-25T12:19:14.895Z,5.77
2022-11-25T12:21:49.202Z,5.90
2022-11-25T12:24:23.777Z,5.70
2022-11-25T12:26:59.013Z,5.70
2022-11-25T12:29:35.297Z,4.87
2022-11-25T12:32:31.382Z,5.83
2022-11-25T12:35:06.002Z,5.13
2022-11-25T12:37:40.646Z,5.13
2022-11-25T12:40:15.922Z,4.80
2022-11-25T12:42:47.543Z,6.10
2022-11-25T12:45:23.103Z,5.60
2022-11-25T12:47:51.581Z,5.47
2022-11-25T12:50:37.915Z,6.00
2022-11-25T12:53:13.469Z,5.70
2022-11-25T12:55:41.992Z,5.80
2022-11-25T12:58:42.499Z,5.73
2022-11-25T13:01:43.300Z,6.20
2022-11-25T13:04:50.547Z,6.77
2022-11-25T13:07:45.751Z,7.50
2022-11-25T13:10:33.691Z,7.77
2022-11-25T13:13:28.452Z,7.93
2022-11-25T13:16:00.744Z,7.93
2022-11-25T13:18:33.335Z,7.60
2022-11-25T13:21:08.294Z,7.33
2022-11-25T13:23:50.070Z,7.07
2022-11-25T13:26:50.128Z,6.90
2022-11-25T13:30:03.338Z,5.90
2022-11-25T13:32:43.325Z,6.00
2022-11-25T13:35:33.263Z,6.00
2022-11-25T13:38:01.385Z,5.93
2022-11-25T13:40:39.193Z,6.07
2022-11-25T13:43:22.023Z,5.97
2022-11-25T13:45:50.717Z,5.60
2022-11-25T13:48:22.158Z,5.47
2022-11-25T13:53:40.562Z,6.17
2022-11-25T13:56:27.429Z,6.23
2022-11-25T13:59:21.967Z,6.80
2022-11-25T14:01:56.183Z,7.07
2022-11-25T14:04:42.648Z,7.17
2022-11-25T14:07:23.374Z,7.10
2022-11-25T14:10:17.036Z,6.63
2022-11-25T14:13:12.600Z,6.53
2022-11-25T14:16:02.336Z,7.07
2022-11-25T14:21:56.510Z,6.73
2022-11-25T14:24:35.617Z,6.47
2022-11-25T14:27:05.688Z,7.17
2022-11-25T14:29:43.027Z,7.03
2022-11-25T14:32:15.995Z,6.83
2022-11-25T14:34:47.157Z,7.07
2022-11-25T14:37:21.380Z,6.80
2022-11-25T14:39:56.825Z,6.30
2022-11-25T14:42:28.763Z,5.97
2022-11-25T14:44:58.498Z,6.77
2022-11-25T14:47:28.803Z,6.73
2022-11-25T14:50:19.233Z,6.60
2022-11-25T14:52:48.372Z,7.07
2022-11-25T14:55:27.927Z,6.83
2022-11-25T14:57:56.808Z,7.30
2022-11-25T15:00:26.622Z,7.93
2022-11-25T15:02:57.259Z,8.10
2022-11-25T15:05:27.347Z,8.47
2022-11-25T15:08:00.390Z,9.30
2022-11-25T15:10:39.388Z,8.13
2022-11-25T15:13:14.892Z,7.73
2022-11-25T15:15:47.970Z,7.90
2022-11-25T15:18:21.499Z,8.23
2022-11-25T15:20:52.570Z,8.07
2022-11-25T15:23:32.834Z,8.40
2022-11-25T15:26:01.219Z,8.93
2022-11-25T15:28:35.372Z,7.77
2022-11-25T15:31:10.716Z,8.33
2022-11-25T15:33:39.965Z,8.40
2022-11-25T15:36:08.501Z,8.60
2022-11-25T15:38:41.176Z,7.83
2022-11-25T15:41:21.463Z,8.20
2022-11-25T15:43:52.035Z,7.47
2022-11-25T15:46:22.395Z,7.00
2022-11-25T15:48:53.719Z,7.33
2022-11-25T15:51:34.897Z,7.93
2022-11-25T15:54:06.601Z,8.10
2022-11-25T15:56:38.767Z,6.80
2022-11-25T15:59:06.788Z,7.23
2022-11-25T16:01:40.016Z,7.70
2022-11-25T16:04:18.782Z,6.70
2022-11-25T16:06:55.418Z,7.00
2022-11-25T16:09:28.655Z,6.77
2022-11-25T16:12:07.738Z,6.93
2022-11-25T16:14:38.348Z,7.47
2022-11-25T16:17:12.109Z,6.80
2022-11-25T16:19:43.278Z,7.83
2022-11-25T16:22:15.126Z,7.63
2022-11-25T16:24:49.536Z,7.50
2022-11-25T16:27:20.628Z,7.33
2022-11-25T16:29:55.189Z,7.63
2022-11-25T16:32:26.664Z,7.43
2022-11-25T16:34:57.617Z,8.07
2022-11-25T16:37:28.952Z,7.50
2022-11-25T16:39:56.800Z,8.47
2022-11-25T16:42:24.641Z,7.07
2022-11-25T16:44:53.760Z,8.50
2022-11-25T16:47:24.546Z,7.20
2022-11-25T16:49:52.422Z,8.37
2022-11-25T16:52:20.444Z,8.03
2022-11-25T16:54:48.340Z,7.87
2022-11-25T16:57:21.434Z,7.93
2022-11-25T16:59:55.895Z,8.67
2022-11-25T17:02:28.045Z,8.33
2022-11-25T17:04:58.496Z,8.00
2022-11-25T17:07:34.166Z,9.47
2022-11-25T17:10:02.875Z,9.70
2022-11-25T17:12:33.364Z,8.60
2022-11-25T17:15:04.731Z,9.03
2022-11-25T17:17:35.067Z,8.80
2022-11-25T17:20:02.996Z,9.97
2022-11-25T17:22:34.776Z,9.90
2022-11-25T17:25:07.177Z,9.97
2022-11-25T17:27:35.455Z,9.87
2022-11-25T17:30:06.797Z,10.83
2022-11-25T17:32:37.061Z,9.30
2022-11-25T17:35:05.579Z,9.37
2022-11-25T17:37:33.857Z,9.50
2022-11-25T17:40:02.221Z,9.57
2022-11-25T17:42:31.878Z,10.33
2022-11-25T17:45:00.041Z,10.53
2022-11-25T17:47:28.344Z,9.67
2022-11-25T17:49:58.485Z,10.17
2022-11-25T17:52:26.404Z,10.20
2022-11-25T17:54:54.274Z,9.83
2022-11-25T17:57:25.612Z,9.97
2022-11-25T17:59:53.531Z,10.23
2022-11-25T18:02:23.376Z,10.10
2022-11-25T18:04:51.566Z,9.63
2022-11-25T18:07:20.873Z,9.10
2022-11-25T18:09:49.306Z,9.73
2022-11-25T18:12:20.815Z,9.80
2022-11-25T18:14:48.968Z,9.67
2022-11-25T18:17:19.316Z,8.77
2022-11-25T18:19:54.540Z,9.73
2022-11-25T18:22:25.004Z,9.23
2022-11-25T18:24:53.824Z,8.80
2022-11-25T18:27:23.815Z,9.17
2022-11-25T18:29:52.640Z,9.90
2022-11-25T18:32:20.677Z,8.63
2022-11-25T18:34:48.592Z,9.23
2022-11-25T18:37:16.555Z,8.73
2022-11-25T18:39:46.614Z,9.10
2022-11-25T18:42:24.434Z,9.37
2022-11-25T18:44:53.048Z,10.20
2022-11-25T18:47:21.003Z,9.23
2022-11-25T18:49:55.193Z,9.43
2022-11-25T18:52:23.612Z,9.47
2022-11-25T18:54:53.035Z,9.17
2022-11-25T18:57:21.203Z,9.33
2022-11-25T19:00:10.294Z,9.90
2022-11-25T19:02:51.020Z,9.23
2022-11-25T19:05:21.884Z,9.37
2022-11-25T19:07:53.516Z,9.27
2022-11-25T19:10:26.124Z,9.80
2022-11-25T19:12:59.058Z,10.07
2022-11-25T19:15:28.459Z,8.73
2022-11-25T19:17:59.458Z,10.00
2022-11-25T19:20:28.518Z,9.60
2022-11-25T19:23:00.555Z,9.43
2022-11-25T19:25:30.634Z,9.57
2022-11-25T19:28:00.822Z,10.43
2022-11-25T19:30:33.027Z,9.07
2022-11-25T19:33:03.264Z,9.83
2022-11-25T19:35:34.353Z,9.83
2022-11-25T19:38:02.316Z,9.47
2022-11-25T19:40:38.989Z,9.57
2022-11-25T19:43:08.677Z,9.33
2022-11-25T19:45:37.832Z,9.40
2022-11-25T19:48:09.198Z,10.10
2022-11-25T19:50:40.138Z,9.17
2022-11-25T19:53:15.171Z,8.47
2022-11-25T19:55:45.269Z,9.40
2022-11-25T19:58:13.837Z,8.00
2022-11-25T20:00:43.571Z,10.50
2022-11-25T20:03:18.750Z,8.47
2022-11-25T20:05:47.381Z,9.90
2022-11-25T20:08:19.933Z,9.63
2022-11-25T20:10:49.695Z,8.20
2022-11-25T20:13:17.902Z,9.50
2022-11-25T20:15:47.526Z,8.83
2022-11-25T20:18:18.642Z,8.93
2022-11-25T20:20:48.896Z,8.30
2022-11-25T20:23:22.503Z,8.60
2022-11-25T20:25:51.952Z,8.70
2022-11-25T20:28:22.361Z,8.20
2022-11-25T20:30:51.214Z,8.33
2022-11-25T20:33:24.072Z,7.53
2022-11-25T20:36:02.287Z,8.03
2022-11-25T20:38:32.580Z,9.17
2022-11-25T20:41:02.805Z,8.57
2022-11-25T20:43:32.716Z,8.70
2022-11-25T20:46:02.147Z,8.70
2022-11-25T20:48:31.260Z,8.47
2022-11-25T20:51:01.550Z,7.93
2022-11-25T20:53:32.070Z,7.57
2022-11-25T20:56:02.011Z,8.13
2022-11-25T20:58:31.892Z,8.23
2022-11-25T21:01:00.365Z,7.63
2022-11-25T21:03:28.692Z,7.43
2022-11-25T21:05:58.221Z,7.93
2022-11-25T21:08:30.915Z,7.77
2022-11-25T21:11:01.508Z,8.23
2022-11-25T21:13:31.578Z,8.40
2022-11-25T21:16:00.316Z,8.23
2022-11-25T21:18:28.319Z,7.53
2022-11-25T21:20:58.272Z,8.60
2022-11-25T21:23:29.572Z,8.63
2022-11-25T21:26:05.225Z,8.33
2022-11-25T21:28:36.138Z,8.50
2022-11-25T21:31:09.799Z,9.13
2022-11-25T21:33:39.161Z,8.73
2022-11-25T21:36:10.849Z,8.97
2022-11-25T21:38:38.870Z,8.57
2022-11-25T21:41:08.786Z,9.53
2022-11-25T21:43:40.929Z,9.63
2022-11-25T21:46:14.074Z,9.63
2022-11-25T21:48:42.403Z,10.17
2022-11-25T21:51:12.728Z,9.73
2022-11-25T21:53:41.297Z,8.93
2022-11-25T21:56:18.320Z,10.43
2022-11-25T21:58:46.414Z,9.80
2022-11-25T22:01:24.755Z,10.30
2022-11-25T22:03:53.099Z,9.40
2022-11-25T22:06:23.792Z,8.90
2022-11-25T22:08:52.241Z,9.90
2022-11-25T22:11:24.201Z,10.27
2022-11-25T22:13:52.521Z,9.70
2022-11-25T22:16:27.474Z,8.60
2022-11-25T22:18:55.705Z,8.40
2022-11-25T22:21:23.744Z,9.43
2022-11-25T22:23:51.889Z,8.83
2022-11-25T22:26:28.354Z,8.73
2022-11-25T22:28:56.975Z,8.33
2022-11-25T22:31:26.235Z,8.57
2022-11-25T22:33:54.964Z,8.50
2022-11-25T22:36:34.153Z,7.67
2022-11-25T22:39:13.217Z,7.57
2022-11-25T22:41:43.551Z,8.37
2022-11-25T22:44:18.642Z,7.87
2022-11-25T22:46:46.816Z,8.97
2022-11-25T22:49:35.216Z,8.53
2022-11-25T22:52:03.678Z,8.43
2022-11-25T22:54:39.342Z,8.77
2022-11-25T22:57:09.174Z,7.93
2022-11-25T22:59:37.410Z,8.70
2022-11-25T23:02:05.550Z,7.47
2022-11-25T23:04:34.034Z,8.37
2022-11-25T23:07:02.055Z,7.70
2022-11-25T23:09:30.171Z,8.50
2022-11-25T23:11:58.534Z,7.03
2022-11-25T23:14:28.214Z,8.40
2022-11-25T23:16:56.239Z,7.67
2022-11-25T23:19:24.466Z,8.00
2022-11-25T23:21:52.367Z,8.43
2022-11-25T23:24:20.318Z,7.50
2022-11-25T23:26:51.272Z,7.63
2022-11-25T23:29:19.215Z,7.80
2022-11-25T23:31:49.467Z,7.37
2022-11-25T23:34:17.980Z,7.07
2022-11-25T23:36:47.906Z,7.70
2022-11-25T23:39:20.022Z,6.83
2022-11-25T23:41:48.864Z,8.13
2022-11-25T23:44:22.998Z,6.27
2022-11-25T23:46:52.958Z,6.30
2022-11-25T23:49:26.603Z,5.60
2022-11-25T23:52:00.284Z,6.07
2022-11-25T23:54:40.451Z,6.17
2022-11-25T23:57:14.379Z,7.00
2022-11-25T23:59:42.485Z,6.13
